sensor_id;sensor_type;location;lat;lon;timestamp;P1;durP1;ratioP1;P2;durP2;ratioP2
11228;SDS011;5671;47.936;8.716;2022-10-29T00:00:15;10.80;;;5.33;;
11228;SDS011;5671;47.936;8.716;2022-10-29T00:02:42;9.93;;;5.10;;
11228;SDS011;5671;47.936;8.716;2022-10-29T00:05:09;10.20;;;4.33;;
11228;SDS011;5671;47.936;8.716;2022-10-29T00:07:36;10.97;;;4.60;;
11228;SDS011;5671;47.936;8.716;2022-10-29T00:10:03;7.90;;;3.97;;
11228;SDS011;5671;47.936;8.716;2022-10-29T00:12:30;12.50;;;4.87;;
11228;SDS011;5671;47.936;8.716;2022-10-29T00:14:58;10.33;;;4.27;;
11228;SDS011;5671;47.936;8.716;2022-10-29T00:17:25;6.57;;;4.70;;
11228;SDS011;5671;47.936;8.716;2022-10-29T00:19:52;10.17;;;4.00;;
11228;SDS011;5671;47.936;8.716;2022-10-29T00:22:19;5.33;;;2.70;;
11228;SDS011;5671;47.936;8.716;2022-10-29T00:24:46;3.57;;;2.33;;
11228;SDS011;5671;47.936;8.716;2022-10-29T00:27:13;8.87;;;2.83;;
11228;SDS011;5671;47.936;8.716;2022-10-29T00:29:40;8.83;;;2.53;;
11228;SDS011;5671;47.936;8.716;2022-10-29T00:32:08;8.60;;;2.40;;
11228;SDS011;5671;47.936;8.716;2022-10-29T00:34:35;3.87;;;2.57;;
11228;SDS011;5671;47.936;8.716;2022-10-29T00:37:02;4.93;;;2.67;;
11228;SDS011;5671;47.936;8.716;2022-10-29T00:39:29;4.33;;;2.70;;
11228;SDS011;5671;47.936;8.716;2022-10-29T00:41:57;6.93;;;2.93;;
11228;SDS011;5671;47.936;8.716;2022-10-29T00:44:26;7.67;;;2.60;;
11228;SDS011;5671;47.936;8.716;2022-10-29T00:46:56;8.43;;;2.70;;
11228;SDS011;5671;47.936;8.716;2022-10-29T00:49:29;4.93;;;2.70;;
11228;SDS011;5671;47.936;8.716;2022-10-29T00:51:57;6.90;;;2.97;;
11228;SDS011;5671;47.936;8.716;2022-10-29T00:54:27;6.90;;;3.47;;
11228;SDS011;5671;47.936;8.716;2022-10-29T00:56:56;8.30;;;3.33;;
11228;SDS011;5671;47.936;8.716;2022-10-29T00:59:25;10.27;;;5.17;;
11228;SDS011;5671;47.936;8.716;2022-10-29T01:01:53;8.40;;;5.30;;
11228;SDS011;5671;47.936;8.716;2022-10-29T01:04:21;10.77;;;5.70;;
11228;SDS011;5671;47.936;8.716;2022-10-29T01:06:50;7.77;;;4.50;;
11228;SDS011;5671;47.936;8.716;2022-10-29T01:09:18;6.50;;;3.93;;
11228;SDS011;5671;47.936;8.716;2022-10-29T01:11:47;8.07;;;4.80;;
11228;SDS011;5671;47.936;8.716;2022-10-29T01:14:26;7.93;;;5.37;;
11228;SDS011;5671;47.936;8.716;2022-10-29T01:17:02;12.77;;;6.97;;
11228;SDS011;5671;47.936;8.716;2022-10-29T01:19:43;11.33;;;5.97;;
11228;SDS011;5671;47.936;8.716;2022-10-29T01:22:31;9.67;;;5.93;;
11228;SDS011;5671;47.936;8.716;2022-10-29T01:25:11;6.47;;;4.13;;
11228;SDS011;5671;47.936;8.716;2022-10-29T01:28:05;8.00;;;3.83;;
11228;SDS011;5671;47.936;8.716;2022-10-29T01:30:48;8.27;;;4.60;;
11228;SDS011;5671;47.936;8.716;2022-10-29T01:33:32;10.27;;;4.00;;
11228;SDS011;5671;47.936;8.716;2022-10-29T01:36:06;8.70;;;3.80;;
11228;SDS011;5671;47.936;8.716;2022-10-29T01:38:45;6.87;;;3.10;;
11228;SDS011;5671;47.936;8.716;2022-10-29T01:41:19;7.57;;;4.20;;
11228;SDS011;5671;47.936;8.716;2022-10-29T01:43:49;10.90;;;4.90;;
11228;SDS011;5671;47.936;8.716;2022-10-29T01:46:22;10.07;;;4.77;;
11228;SDS011;5671;47.936;8.716;2022-10-29T01:48:53;10.87;;;4.10;;
11228;SDS011;5671;47.936;8.716;2022-10-29T01:51:27;10.87;;;4.00;;
11228;SDS011;5671;47.936;8.716;2022-10-29T01:53:57;15.87;;;3.90;;
11228;SDS011;5671;47.936;8.716;2022-10-29T01:56:25;10.63;;;4.47;;
11228;SDS011;5671;47.936;8.716;2022-10-29T01:58:53;12.07;;;4.10;;
11228;SDS011;5671;47.936;8.716;2022-10-29T02:01:32;7.83;;;4.10;;
11228;SDS011;5671;47.936;8.716;2022-10-29T02:04:15;8.00;;;3.47;;
11228;SDS011;5671;47.936;8.716;2022-10-29T02:07:05;7.07;;;3.40;;
11228;SDS011;5671;47.936;8.716;2022-10-29T02:09:44;5.03;;;2.70;;
11228;SDS011;5671;47.936;8.716;2022-10-29T02:12:19;9.00;;;2.80;;
11228;SDS011;5671;47.936;8.716;2022-10-29T02:14:50;7.90;;;2.47;;
11228;SDS011;5671;47.936;8.716;2022-10-29T02:17:23;4.43;;;2.67;;
11228;SDS011;5671;47.936;8.716;2022-10-29T02:19:50;7.93;;;2.73;;
11228;SDS011;5671;47.936;8.716;2022-10-29T02:22:17;6.60;;;2.60;;
11228;SDS011;5671;47.936;8.716;2022-10-29T02:24:44;6.87;;;2.70;;
11228;SDS011;5671;47.936;8.716;2022-10-29T02:27:11;5.03;;;2.70;;
11228;SDS011;5671;47.936;8.716;2022-10-29T02:29:38;10.57;;;2.90;;
11228;SDS011;5671;47.936;8.716;2022-10-29T02:32:05;5.77;;;2.47;;
11228;SDS011;5671;47.936;8.716;2022-10-29T02:34:33;5.17;;;3.20;;
11228;SDS011;5671;47.936;8.716;2022-10-29T02:37:00;7.77;;;2.87;;
11228;SDS011;5671;47.936;8.716;2022-10-29T02:39:27;6.47;;;3.20;;
11228;SDS011;5671;47.936;8.716;2022-10-29T02:41:54;5.70;;;2.97;;
11228;SDS011;5671;47.936;8.716;2022-10-29T02:44:21;5.27;;;3.30;;
11228;SDS011;5671;47.936;8.716;2022-10-29T02:46:48;8.17;;;3.20;;
11228;SDS011;5671;47.936;8.716;2022-10-29T02:49:15;6.60;;;3.57;;
11228;SDS011;5671;47.936;8.716;2022-10-29T02:51:44;6.90;;;3.40;;
11228;SDS011;5671;47.936;8.716;2022-10-29T02:54:11;7.40;;;3.63;;
11228;SDS011;5671;47.936;8.716;2022-10-29T02:56:38;7.13;;;3.23;;
11228;SDS011;5671;47.936;8.716;2022-10-29T02:59:05;6.67;;;3.13;;
11228;SDS011;5671;47.936;8.716;2022-10-29T03:01:32;10.63;;;4.13;;
11228;SDS011;5671;47.936;8.716;2022-10-29T03:03:59;10.80;;;3.53;;
11228;SDS011;5671;47.936;8.716;2022-10-29T03:06:26;11.03;;;3.67;;
11228;SDS011;5671;47.936;8.716;2022-10-29T03:08:54;6.77;;;3.40;;
11228;SDS011;5671;47.936;8.716;2022-10-29T03:11:21;6.33;;;3.27;;
11228;SDS011;5671;47.936;8.716;2022-10-29T03:13:48;8.50;;;3.37;;
11228;SDS011;5671;47.936;8.716;2022-10-29T03:16:15;4.43;;;3.20;;
11228;SDS011;5671;47.936;8.716;2022-10-29T03:18:42;12.53;;;3.97;;
11228;SDS011;5671;47.936;8.716;2022-10-29T03:21:09;9.13;;;3.80;;
11228;SDS011;5671;47.936;8.716;2022-10-29T03:23:35;8.40;;;3.27;;
11228;SDS011;5671;47.936;8.716;2022-10-29T03:26:04;8.13;;;3.33;;
11228;SDS011;5671;47.936;8.716;2022-10-29T03:28:31;7.07;;;3.37;;
11228;SDS011;5671;47.936;8.716;2022-10-29T03:30:58;8.23;;;3.13;;
11228;SDS011;5671;47.936;8.716;2022-10-29T03:33:25;4.47;;;2.93;;
11228;SDS011;5671;47.936;8.716;2022-10-29T03:35:55;4.73;;;2.70;;
11228;SDS011;5671;47.936;8.716;2022-10-29T03:38:23;6.63;;;3.07;;
11228;SDS011;5671;47.936;8.716;2022-10-29T03:40:50;9.00;;;3.20;;
11228;SDS011;5671;47.936;8.716;2022-10-29T03:43:18;10.40;;;2.60;;
11228;SDS011;5671;47.936;8.716;2022-10-29T03:45:48;5.47;;;2.60;;
11228;SDS011;5671;47.936;8.716;2022-10-29T03:48:16;8.87;;;3.17;;
11228;SDS011;5671;47.936;8.716;2022-10-29T03:50:43;7.40;;;3.07;;
11228;SDS011;5671;47.936;8.716;2022-10-29T03:53:09;7.07;;;3.50;;
11228;SDS011;5671;47.936;8.716;2022-10-29T03:55:36;4.33;;;3.47;;
11228;SDS011;5671;47.936;8.716;2022-10-29T03:58:03;7.73;;;4.10;;
11228;SDS011;5671;47.936;8.716;2022-10-29T04:00:34;8.73;;;4.37;;
11228;SDS011;5671;47.936;8.716;2022-10-29T04:03:01;11.47;;;4.50;;
11228;SDS011;5671;47.936;8.716;2022-10-29T04:05:28;8.87;;;4.93;;
11228;SDS011;5671;47.936;8.716;2022-10-29T04:07:55;6.83;;;3.97;;
11228;SDS011;5671;47.936;8.716;2022-10-29T04:10:22;5.47;;;3.97;;
11228;SDS011;5671;47.936;8.716;2022-10-29T04:12:49;10.23;;;4.60;;
11228;SDS011;5671;47.936;8.716;2022-10-29T04:15:16;10.77;;;4.23;;
11228;SDS011;5671;47.936;8.716;2022-10-29T04:17:45;7.43;;;3.70;;
11228;SDS011;5671;47.936;8.716;2022-10-29T04:20:15;10.97;;;3.73;;
11228;SDS011;5671;47.936;8.716;2022-10-29T04:22:42;9.20;;;3.73;;
11228;SDS011;5671;47.936;8.716;2022-10-29T04:25:09;8.77;;;3.60;;
11228;SDS011;5671;47.936;8.716;2022-10-29T04:27:36;5.97;;;2.20;;
11228;SDS011;5671;47.936;8.716;2022-10-29T04:30:03;6.63;;;2.27;;
11228;SDS011;5671;47.936;8.716;2022-10-29T04:32:30;3.30;;;2.23;;
11228;SDS011;5671;47.936;8.716;2022-10-29T04:34:59;5.53;;;2.43;;
11228;SDS011;5671;47.936;8.716;2022-10-29T04:37:26;8.27;;;2.40;;
11228;SDS011;5671;47.936;8.716;2022-10-29T04:39:54;4.47;;;2.17;;
11228;SDS011;5671;47.936;8.716;2022-10-29T04:42:21;4.77;;;2.30;;
11228;SDS011;5671;47.936;8.716;2022-10-29T04:44:48;4.03;;;2.00;;
11228;SDS011;5671;47.936;8.716;2022-10-29T04:47:15;4.93;;;2.37;;
11228;SDS011;5671;47.936;8.716;2022-10-29T04:49:41;7.07;;;2.47;;
11228;SDS011;5671;47.936;8.716;2022-10-29T04:52:10;38.40;;;3.30;;
11228;SDS011;5671;47.936;8.716;2022-10-29T04:54:37;40.50;;;3.00;;
11228;SDS011;5671;47.936;8.716;2022-10-29T04:57:04;61.73;;;3.53;;
11228;SDS011;5671;47.936;8.716;2022-10-29T04:59:30;8.20;;;2.17;;
11228;SDS011;5671;47.936;8.716;2022-10-29T05:01:57;16.10;;;2.40;;
11228;SDS011;5671;47.936;8.716;2022-10-29T05:04:24;3.97;;;2.10;;
11228;SDS011;5671;47.936;8.716;2022-10-29T05:06:53;4.60;;;1.83;;
11228;SDS011;5671;47.936;8.716;2022-10-29T05:09:21;4.93;;;1.97;;
11228;SDS011;5671;47.936;8.716;2022-10-29T05:11:48;2.90;;;2.00;;
11228;SDS011;5671;47.936;8.716;2022-10-29T05:14:15;8.20;;;2.20;;
11228;SDS011;5671;47.936;8.716;2022-10-29T05:16:42;9.87;;;2.70;;
11228;SDS011;5671;47.936;8.716;2022-10-29T05:19:09;4.10;;;1.90;;
11228;SDS011;5671;47.936;8.716;2022-10-29T05:21:36;13.73;;;2.67;;
11228;SDS011;5671;47.936;8.716;2022-10-29T05:24:03;4.87;;;1.97;;
11228;SDS011;5671;47.936;8.716;2022-10-29T05:26:31;2.60;;;2.10;;
11228;SDS011;5671;47.936;8.716;2022-10-29T05:28:58;5.07;;;2.30;;
11228;SDS011;5671;47.936;8.716;2022-10-29T05:31:25;14.37;;;2.13;;
11228;SDS011;5671;47.936;8.716;2022-10-29T05:33:52;16.03;;;2.20;;
11228;SDS011;5671;47.936;8.716;2022-10-29T05:36:19;6.33;;;2.13;;
11228;SDS011;5671;47.936;8.716;2022-10-29T05:38:46;3.27;;;2.10;;
11228;SDS011;5671;47.936;8.716;2022-10-29T05:41:12;2.80;;;2.30;;
11228;SDS011;5671;47.936;8.716;2022-10-29T05:43:41;4.97;;;2.10;;
11228;SDS011;5671;47.936;8.716;2022-10-29T05:46:08;7.27;;;2.40;;
11228;SDS011;5671;47.936;8.716;2022-10-29T05:48:35;4.27;;;2.30;;
11228;SDS011;5671;47.936;8.716;2022-10-29T05:51:04;4.67;;;2.57;;
11228;SDS011;5671;47.936;8.716;2022-10-29T05:53:31;9.67;;;2.90;;
11228;SDS011;5671;47.936;8.716;2022-10-29T05:55:58;9.63;;;7.40;;
11228;SDS011;5671;47.936;8.716;2022-10-29T05:58:25;9.63;;;7.10;;
11228;SDS011;5671;47.936;8.716;2022-10-29T06:00:53;7.43;;;5.83;;
11228;SDS011;5671;47.936;8.716;2022-10-29T06:03:21;13.20;;;2.83;;
11228;SDS011;5671;47.936;8.716;2022-10-29T06:05:48;12.87;;;1.80;;
11228;SDS011;5671;47.936;8.716;2022-10-29T06:08:16;9.20;;;2.63;;
11228;SDS011;5671;47.936;8.716;2022-10-29T06:10:43;7.73;;;3.50;;
11228;SDS011;5671;47.936;8.716;2022-10-29T06:13:10;5.73;;;2.97;;
11228;SDS011;5671;47.936;8.716;2022-10-29T06:15:37;7.50;;;3.00;;
11228;SDS011;5671;47.936;8.716;2022-10-29T06:18:06;3.30;;;2.80;;
11228;SDS011;5671;47.936;8.716;2022-10-29T06:20:33;5.27;;;2.50;;
11228;SDS011;5671;47.936;8.716;2022-10-29T06:23:00;6.93;;;2.70;;
11228;SDS011;5671;47.936;8.716;2022-10-29T06:25:27;6.43;;;2.63;;
11228;SDS011;5671;47.936;8.716;2022-10-29T06:27:58;5.70;;;2.23;;
11228;SDS011;5671;47.936;8.716;2022-10-29T06:30:26;6.20;;;2.40;;
11228;SDS011;5671;47.936;8.716;2022-10-29T06:32:53;4.37;;;2.57;;
11228;SDS011;5671;47.936;8.716;2022-10-29T06:35:22;2.97;;;2.10;;
11228;SDS011;5671;47.936;8.716;2022-10-29T06:37:49;3.33;;;2.20;;
11228;SDS011;5671;47.936;8.716;2022-10-29T06:40:17;3.93;;;1.73;;
11228;SDS011;5671;47.936;8.716;2022-10-29T06:42:44;2.50;;;1.73;;
11228;SDS011;5671;47.936;8.716;2022-10-29T06:45:11;4.87;;;2.10;;
11228;SDS011;5671;47.936;8.716;2022-10-29T06:47:38;3.67;;;2.00;;
11228;SDS011;5671;47.936;8.716;2022-10-29T06:50:06;4.20;;;1.90;;
11228;SDS011;5671;47.936;8.716;2022-10-29T06:52:35;2.13;;;1.80;;
11228;SDS011;5671;47.936;8.716;2022-10-29T06:55:03;7.07;;;3.00;;
11228;SDS011;5671;47.936;8.716;2022-10-29T06:57:31;3.47;;;2.37;;
11228;SDS011;5671;47.936;8.716;2022-10-29T06:59:57;8.13;;;3.40;;
11228;SDS011;5671;47.936;8.716;2022-10-29T07:02:24;4.17;;;2.77;;
11228;SDS011;5671;47.936;8.716;2022-10-29T07:04:51;2.73;;;2.50;;
11228;SDS011;5671;47.936;8.716;2022-10-29T07:07:18;3.40;;;2.50;;
11228;SDS011;5671;47.936;8.716;2022-10-29T07:09:47;7.00;;;3.07;;
11228;SDS011;5671;47.936;8.716;2022-10-29T07:12:14;4.57;;;2.67;;
11228;SDS011;5671;47.936;8.716;2022-10-29T07:14:47;4.80;;;2.70;;
11228;SDS011;5671;47.936;8.716;2022-10-29T07:17:14;5.27;;;3.20;;
11228;SDS011;5671;47.936;8.716;2022-10-29T07:19:43;11.67;;;2.57;;
11228;SDS011;5671;47.936;8.716;2022-10-29T07:22:24;10.37;;;4.23;;
11228;SDS011;5671;47.936;8.716;2022-10-29T07:24:52;6.77;;;2.57;;
11228;SDS011;5671;47.936;8.716;2022-10-29T07:27:19;9.20;;;3.37;;
11228;SDS011;5671;47.936;8.716;2022-10-29T07:29:46;4.07;;;2.50;;
11228;SDS011;5671;47.936;8.716;2022-10-29T07:32:13;6.17;;;2.90;;
11228;SDS011;5671;47.936;8.716;2022-10-29T07:34:40;4.27;;;2.80;;
11228;SDS011;5671;47.936;8.716;2022-10-29T07:37:07;6.87;;;2.60;;
11228;SDS011;5671;47.936;8.716;2022-10-29T07:39:34;4.87;;;2.80;;
11228;SDS011;5671;47.936;8.716;2022-10-29T07:42:02;8.93;;;2.67;;
11228;SDS011;5671;47.936;8.716;2022-10-29T07:44:29;7.70;;;3.17;;
11228;SDS011;5671;47.936;8.716;2022-10-29T07:46:56;7.87;;;4.33;;
11228;SDS011;5671;47.936;8.716;2022-10-29T07:49:26;10.60;;;4.27;;
11228;SDS011;5671;47.936;8.716;2022-10-29T07:51:53;6.20;;;2.90;;
11228;SDS011;5671;47.936;8.716;2022-10-29T07:54:20;4.60;;;2.97;;
11228;SDS011;5671;47.936;8.716;2022-10-29T07:56:47;6.57;;;3.13;;
11228;SDS011;5671;47.936;8.716;2022-10-29T07:59:17;4.10;;;3.30;;
11228;SDS011;5671;47.936;8.716;2022-10-29T08:01:45;4.17;;;2.40;;
11228;SDS011;5671;47.936;8.716;2022-10-29T08:04:12;3.80;;;2.70;;
11228;SDS011;5671;47.936;8.716;2022-10-29T08:06:39;3.97;;;2.47;;
11228;SDS011;5671;47.936;8.716;2022-10-29T08:09:06;5.33;;;2.60;;
11228;SDS011;5671;47.936;8.716;2022-10-29T08:11:33;4.30;;;2.80;;
11228;SDS011;5671;47.936;8.716;2022-10-29T08:14:00;8.43;;;3.47;;
11228;SDS011;5671;47.936;8.716;2022-10-29T08:19:30;11.17;;;3.70;;
11228;SDS011;5671;47.936;8.716;2022-10-29T08:22:09;11.40;;;3.40;;
11228;SDS011;5671;47.936;8.716;2022-10-29T08:24:47;7.07;;;3.37;;
11228;SDS011;5671;47.936;8.716;2022-10-29T08:27:32;7.23;;;3.33;;
11228;SDS011;5671;47.936;8.716;2022-10-29T08:29:59;7.53;;;3.30;;
11228;SDS011;5671;47.936;8.716;2022-10-29T08:38:20;15.33;;;11.07;;
11228;SDS011;5671;47.936;8.716;2022-10-29T08:40:53;15.57;;;4.27;;
11228;SDS011;5671;47.936;8.716;2022-10-29T08:43:46;9.33;;;3.77;;
11228;SDS011;5671;47.936;8.716;2022-10-29T08:46:41;10.07;;;5.27;;
11228;SDS011;5671;47.936;8.716;2022-10-29T08:49:13;12.70;;;5.17;;
11228;SDS011;5671;47.936;8.716;2022-10-29T08:51:46;8.60;;;3.50;;
11228;SDS011;5671;47.936;8.716;2022-10-29T08:54:18;12.80;;;4.40;;
11228;SDS011;5671;47.936;8.716;2022-10-29T08:56:47;13.97;;;8.87;;
11228;SDS011;5671;47.936;8.716;2022-10-29T08:59:18;6.93;;;4.00;;
11228;SDS011;5671;47.936;8.716;2022-10-29T09:01:47;5.97;;;3.73;;
11228;SDS011;5671;47.936;8.716;2022-10-29T09:04:20;13.67;;;4.17;;
11228;SDS011;5671;47.936;8.716;2022-10-29T09:06:55;9.23;;;3.77;;
11228;SDS011;5671;47.936;8.716;2022-10-29T09:12:52;11.97;;;4.00;;
11228;SDS011;5671;47.936;8.716;2022-10-29T09:15:45;7.03;;;3.43;;
11228;SDS011;5671;47.936;8.716;2022-10-29T09:18:42;6.33;;;3.67;;
11228;SDS011;5671;47.936;8.716;2022-10-29T09:21:19;11.33;;;4.20;;
11228;SDS011;5671;47.936;8.716;2022-10-29T09:23:59;11.73;;;4.23;;
11228;SDS011;5671;47.936;8.716;2022-10-29T09:26:35;9.60;;;4.10;;
11228;SDS011;5671;47.936;8.716;2022-10-29T09:31:56;7.37;;;3.20;;
11228;SDS011;5671;47.936;8.716;2022-10-29T09:34:27;7.23;;;3.37;;
11228;SDS011;5671;47.936;8.716;2022-10-29T09:36:57;8.67;;;3.70;;
11228;SDS011;5671;47.936;8.716;2022-10-29T09:39:27;9.97;;;4.00;;
11228;SDS011;5671;47.936;8.716;2022-10-29T09:41:57;13.30;;;3.77;;
11228;SDS011;5671;47.936;8.716;2022-10-29T09:44:29;8.73;;;3.60;;
11228;SDS011;5671;47.936;8.716;2022-10-29T09:47:06;5.43;;;3.73;;
11228;SDS011;5671;47.936;8.716;2022-10-29T09:49:45;11.47;;;3.37;;
11228;SDS011;5671;47.936;8.716;2022-10-29T09:52:27;11.57;;;3.97;;
11228;SDS011;5671;47.936;8.716;2022-10-29T10:11:25;8.23;;;3.40;;
11228;SDS011;5671;47.936;8.716;2022-10-29T10:13:58;6.40;;;3.70;;
11228;SDS011;5671;47.936;8.716;2022-10-29T10:16:28;8.27;;;3.90;;
11228;SDS011;5671;47.936;8.716;2022-10-29T10:19:20;8.77;;;3.63;;
11228;SDS011;5671;47.936;8.716;2022-10-29T10:21:54;11.27;;;3.73;;
11228;SDS011;5671;47.936;8.716;2022-10-29T10:24:30;11.70;;;3.67;;
11228;SDS011;5671;47.936;8.716;2022-10-29T10:27:00;10.73;;;3.33;;
11228;SDS011;5671;47.936;8.716;2022-10-29T10:29:48;11.97;;;3.57;;
11228;SDS011;5671;47.936;8.716;2022-10-29T10:32:33;13.17;;;4.27;;
11228;SDS011;5671;47.936;8.716;2022-10-29T10:35:00;11.53;;;3.93;;
11228;SDS011;5671;47.936;8.716;2022-10-29T10:37:29;11.27;;;4.13;;
11228;SDS011;5671;47.936;8.716;2022-10-29T10:39:59;7.93;;;3.60;;
11228;SDS011;5671;47.936;8.716;2022-10-29T10:42:30;16.27;;;5.23;;
11228;SDS011;5671;47.936;8.716;2022-10-29T10:45:02;17.40;;;7.23;;
11228;SDS011;5671;47.936;8.716;2022-10-29T10:47:41;11.87;;;5.10;;
11228;SDS011;5671;47.936;8.716;2022-10-29T10:50:11;13.43;;;3.97;;
11228;SDS011;5671;47.936;8.716;2022-10-29T10:52:44;17.00;;;4.30;;
11228;SDS011;5671;47.936;8.716;2022-10-29T10:55:16;10.93;;;3.87;;
11228;SDS011;5671;47.936;8.716;2022-10-29T10:57:50;9.90;;;4.10;;
11228;SDS011;5671;47.936;8.716;2022-10-29T11:00:26;9.23;;;3.40;;
11228;SDS011;5671;47.936;8.716;2022-10-29T11:02:59;13.23;;;3.73;;
11228;SDS011;5671;47.936;8.716;2022-10-29T11:05:36;12.30;;;4.03;;
11228;SDS011;5671;47.936;8.716;2022-10-29T11:08:09;10.13;;;3.87;;
11228;SDS011;5671;47.936;8.716;2022-10-29T11:10:43;16.73;;;3.97;;
11228;SDS011;5671;47.936;8.716;2022-10-29T11:13:15;14.33;;;3.70;;
11228;SDS011;5671;47.936;8.716;2022-10-29T11:15:46;12.93;;;3.40;;
11228;SDS011;5671;47.936;8.716;2022-10-29T11:18:17;10.17;;;3.70;;
11228;SDS011;5671;47.936;8.716;2022-10-29T11:20:49;12.33;;;3.23;;
11228;SDS011;5671;47.936;8.716;2022-10-29T11:23:29;13.23;;;3.77;;
11228;SDS011;5671;47.936;8.716;2022-10-29T11:26:04;11.27;;;3.20;;
11228;SDS011;5671;47.936;8.716;2022-10-29T11:28:38;6.53;;;3.20;;
11228;SDS011;5671;47.936;8.716;2022-10-29T11:31:12;15.33;;;3.77;;
11228;SDS011;5671;47.936;8.716;2022-10-29T11:33:46;12.77;;;3.43;;
11228;SDS011;5671;47.936;8.716;2022-10-29T11:36:18;16.03;;;3.93;;
11228;SDS011;5671;47.936;8.716;2022-10-29T11:38:48;10.80;;;3.17;;
11228;SDS011;5671;47.936;8.716;2022-10-29T11:41:22;13.47;;;3.60;;
11228;SDS011;5671;47.936;8.716;2022-10-29T11:43:57;9.10;;;3.17;;
11228;SDS011;5671;47.936;8.716;2022-10-29T11:46:30;14.53;;;3.30;;
11228;SDS011;5671;47.936;8.716;2022-10-29T11:49:05;9.83;;;2.90;;
11228;SDS011;5671;47.936;8.716;2022-10-29T11:51:44;14.10;;;2.83;;
11228;SDS011;5671;47.936;8.716;2022-10-29T11:54:25;14.07;;;3.63;;
11228;SDS011;5671;47.936;8.716;2022-10-29T11:57:04;9.03;;;2.87;;
11228;SDS011;5671;47.936;8.716;2022-10-29T11:59:45;10.73;;;3.37;;
11228;SDS011;5671;47.936;8.716;2022-10-29T12:02:31;11.10;;;3.80;;
11228;SDS011;5671;47.936;8.716;2022-10-29T12:05:11;8.77;;;3.13;;
11228;SDS011;5671;47.936;8.716;2022-10-29T12:07:50;9.73;;;3.17;;
11228;SDS011;5671;47.936;8.716;2022-10-29T12:10:31;9.33;;;3.27;;
11228;SDS011;5671;47.936;8.716;2022-10-29T12:13:14;11.47;;;3.13;;
11228;SDS011;5671;47.936;8.716;2022-10-29T12:15:52;11.10;;;3.30;;
11228;SDS011;5671;47.936;8.716;2022-10-29T12:18:49;10.43;;;3.27;;
11228;SDS011;5671;47.936;8.716;2022-10-29T12:21:34;8.57;;;3.27;;
11228;SDS011;5671;47.936;8.716;2022-10-29T12:27:48;9.10;;;3.10;;
11228;SDS011;5671;47.936;8.716;2022-10-29T12:30:19;12.30;;;3.13;;
11228;SDS011;5671;47.936;8.716;2022-10-29T12:32:57;14.73;;;3.23;;
11228;SDS011;5671;47.936;8.716;2022-10-29T12:36:02;9.17;;;3.03;;
11228;SDS011;5671;47.936;8.716;2022-10-29T12:38:54;10.57;;;2.90;;
11228;SDS011;5671;47.936;8.716;2022-10-29T12:51:27;11.60;;;3.60;;
11228;SDS011;5671;47.936;8.716;2022-10-29T12:54:22;9.57;;;3.33;;
11228;SDS011;5671;47.936;8.716;2022-10-29T13:09:40;10.47;;;3.53;;
11228;SDS011;5671;47.936;8.716;2022-10-29T13:13:18;9.37;;;2.93;;
11228;SDS011;5671;47.936;8.716;2022-10-29T13:32:59;12.23;;;3.47;;
11228;SDS011;5671;47.936;8.716;2022-10-29T13:36:07;14.77;;;3.43;;
11228;SDS011;5671;47.936;8.716;2022-10-29T13:40:06;10.90;;;3.17;;
11228;SDS011;5671;47.936;8.716;2022-10-29T13:42:25;10.40;;;3.70;;
11228;SDS011;5671;47.936;8.716;2022-10-29T13:48:24;12.63;;;3.80;;
11228;SDS011;5671;47.936;8.716;2022-10-29T13:51:29;12.23;;;3.53;;
11228;SDS011;5671;47.936;8.716;2022-10-29T13:54:17;10.97;;;3.60;;
11228;SDS011;5671;47.936;8.716;2022-10-29T13:56:55;14.70;;;3.47;;
11228;SDS011;5671;47.936;8.716;2022-10-29T13:59:37;10.20;;;3.03;;
11228;SDS011;5671;47.936;8.716;2022-10-29T14:05:39;12.00;;;3.97;;
11228;SDS011;5671;47.936;8.716;2022-10-29T14:08:16;10.07;;;3.33;;
11228;SDS011;5671;47.936;8.716;2022-10-29T14:10:57;10.03;;;3.13;;
11228;SDS011;5671;47.936;8.716;2022-10-29T14:13:30;12.60;;;3.63;;
11228;SDS011;5671;47.936;8.716;2022-10-29T14:16:10;11.47;;;3.40;;
11228;SDS011;5671;47.936;8.716;2022-10-29T14:18:44;8.97;;;2.93;;
11228;SDS011;5671;47.936;8.716;2022-10-29T14:21:15;12.57;;;3.13;;
11228;SDS011;5671;47.936;8.716;2022-10-29T14:23:53;11.87;;;3.30;;
11228;SDS011;5671;47.936;8.716;2022-10-29T14:26:22;9.83;;;3.30;;
11228;SDS011;5671;47.936;8.716;2022-10-29T14:28:50;14.63;;;3.10;;
11228;SDS011;5671;47.936;8.716;2022-10-29T14:31:18;13.97;;;2.77;;
11228;SDS011;5671;47.936;8.716;2022-10-29T14:33:51;15.23;;;3.40;;
11228;SDS011;5671;47.936;8.716;2022-10-29T14:36:26;21.13;;;3.80;;
11228;SDS011;5671;47.936;8.716;2022-10-29T14:38:57;20.93;;;4.27;;
11228;SDS011;5671;47.936;8.716;2022-10-29T14:41:28;15.90;;;3.40;;
11228;SDS011;5671;47.936;8.716;2022-10-29T14:44:01;16.90;;;3.40;;
11228;SDS011;5671;47.936;8.716;2022-10-29T14:46:31;12.00;;;3.30;;
11228;SDS011;5671;47.936;8.716;2022-10-29T14:49:02;14.87;;;3.17;;
11228;SDS011;5671;47.936;8.716;2022-10-29T14:51:38;11.03;;;3.60;;
11228;SDS011;5671;47.936;8.716;2022-10-29T14:54:08;16.63;;;3.93;;
11228;SDS011;5671;47.936;8.716;2022-10-29T14:56:46;11.77;;;3.60;;
11228;SDS011;5671;47.936;8.716;2022-10-29T14:59:17;13.80;;;2.90;;
11228;SDS011;5671;47.936;8.716;2022-10-29T15:01:49;11.83;;;3.60;;
11228;SDS011;5671;47.936;8.716;2022-10-29T15:04:18;14.73;;;3.83;;
11228;SDS011;5671;47.936;8.716;2022-10-29T15:06:49;13.10;;;3.80;;
11228;SDS011;5671;47.936;8.716;2022-10-29T15:09:17;11.13;;;3.37;;
11228;SDS011;5671;47.936;8.716;2022-10-29T15:11:59;14.17;;;3.50;;
11228;SDS011;5671;47.936;8.716;2022-10-29T15:14:31;10.20;;;3.13;;
11228;SDS011;5671;47.936;8.716;2022-10-29T15:17:06;12.97;;;3.20;;
11228;SDS011;5671;47.936;8.716;2022-10-29T15:19:35;8.47;;;3.17;;
11228;SDS011;5671;47.936;8.716;2022-10-29T15:22:09;11.40;;;3.60;;
11228;SDS011;5671;47.936;8.716;2022-10-29T15:24:36;15.60;;;3.30;;
11228;SDS011;5671;47.936;8.716;2022-10-29T15:27:04;14.90;;;3.53;;
11228;SDS011;5671;47.936;8.716;2022-10-29T15:29:32;14.87;;;3.70;;
11228;SDS011;5671;47.936;8.716;2022-10-29T15:32:04;13.40;;;3.53;;
11228;SDS011;5671;47.936;8.716;2022-10-29T15:34:38;11.33;;;3.90;;
11228;SDS011;5671;47.936;8.716;2022-10-29T15:40:10;13.33;;;3.63;;
11228;SDS011;5671;47.936;8.716;2022-10-29T15:42:42;10.23;;;3.80;;
11228;SDS011;5671;47.936;8.716;2022-10-29T15:45:17;12.30;;;3.20;;
11228;SDS011;5671;47.936;8.716;2022-10-29T15:47:47;12.20;;;4.20;;
11228;SDS011;5671;47.936;8.716;2022-10-29T15:50:15;14.40;;;3.40;;
11228;SDS011;5671;47.936;8.716;2022-10-29T15:52:46;11.20;;;3.20;;
11228;SDS011;5671;47.936;8.716;2022-10-29T15:55:19;13.57;;;3.43;;
11228;SDS011;5671;47.936;8.716;2022-10-29T16:00:36;12.47;;;3.67;;
11228;SDS011;5671;47.936;8.716;2022-10-29T16:03:08;11.50;;;3.37;;
11228;SDS011;5671;47.936;8.716;2022-10-29T16:05:45;12.60;;;3.30;;
11228;SDS011;5671;47.936;8.716;2022-10-29T16:09:02;14.07;;;3.77;;
11228;SDS011;5671;47.936;8.716;2022-10-29T16:11:30;17.80;;;4.07;;
11228;SDS011;5671;47.936;8.716;2022-10-29T16:14:05;14.00;;;3.63;;
11228;SDS011;5671;47.936;8.716;2022-10-29T16:16:45;11.13;;;3.23;;
11228;SDS011;5671;47.936;8.716;2022-10-29T16:19:12;14.43;;;3.40;;
11228;SDS011;5671;47.936;8.716;2022-10-29T16:21:39;12.87;;;4.30;;
11228;SDS011;5671;47.936;8.716;2022-10-29T16:24:09;13.33;;;3.60;;
11228;SDS011;5671;47.936;8.716;2022-10-29T16:26:39;13.50;;;3.47;;
11228;SDS011;5671;47.936;8.716;2022-10-29T16:29:07;16.43;;;3.77;;
11228;SDS011;5671;47.936;8.716;2022-10-29T16:31:35;18.63;;;4.77;;
11228;SDS011;5671;47.936;8.716;2022-10-29T16:34:03;14.33;;;4.57;;
11228;SDS011;5671;47.936;8.716;2022-10-29T16:36:31;15.80;;;5.57;;
11228;SDS011;5671;47.936;8.716;2022-10-29T16:38:58;14.50;;;6.30;;
11228;SDS011;5671;47.936;8.716;2022-10-29T16:41:27;11.97;;;5.20;;
11228;SDS011;5671;47.936;8.716;2022-10-29T16:43:54;13.63;;;5.57;;
11228;SDS011;5671;47.936;8.716;2022-10-29T16:46:21;16.53;;;4.73;;
11228;SDS011;5671;47.936;8.716;2022-10-29T16:49:11;15.23;;;4.37;;
11228;SDS011;5671;47.936;8.716;2022-10-29T16:51:38;14.93;;;4.37;;